createdAt,value
2019-02-14T05:00:50.134Z,30.30
2019-02-14T05:03:25.750Z,32.87
2019-02-14T05:06:01.640Z,29.83
2019-02-14T05:08:36.875Z,30.53
2019-02-14T05:11:11.938Z,34.13
2019-02-14T05:13:46.903Z,30.23
2019-02-14T06:02:05.714Z,26.33
2019-02-14T06:04:40.658Z,26.97
2019-02-14T06:07:16.022Z,32.63
2019-02-14T06:09:51.139Z,25.93
2019-02-14T06:12:26.110Z,30.53
2019-02-14T06:15:01.331Z,28.30
2019-02-14T07:00:14.758Z,29.33
2019-02-14T07:02:49.779Z,26.20
2019-02-14T07:05:24.867Z,26.53
2019-02-14T07:07:59.791Z,29.63
2019-02-14T07:10:35.187Z,28.83
2019-02-14T07:13:10.336Z,27.20
2019-02-14T08:01:13.647Z,17.93
2019-02-14T08:03:36.087Z,18.40
2019-02-14T08:05:58.767Z,19.57
2019-02-14T08:08:21.210Z,20.00
2019-02-14T08:11:03.195Z,16.90
2019-02-14T08:13:37.801Z,18.73
2019-02-14T09:01:42.374Z,23.70
2019-02-14T09:04:04.928Z,21.07
2019-02-14T09:06:27.354Z,21.77
2019-02-14T09:08:49.914Z,23.57
2019-02-14T09:11:12.422Z,21.70
2019-02-14T09:13:34.949Z,29.83
2019-02-14T10:01:18.115Z,18.98
2019-02-14T10:03:41.913Z,19.42
2019-02-14T10:06:04.432Z,20.92
2019-02-14T10:08:26.959Z,24.18
2019-02-14T10:10:49.370Z,20.08
2019-02-14T10:13:11.890Z,19.98
2019-02-14T11:00:45.156Z,11.68
2019-02-14T11:03:07.510Z,14.55
2019-02-14T11:05:29.970Z,20.75
2019-02-14T11:07:52.475Z,21.85
2019-02-14T11:10:27.059Z,12.70
2019-02-14T11:13:02.178Z,12.65
2019-02-14T11:51:53.423Z,17.12
2019-02-14T11:54:28.306Z,19.37
2019-02-14T11:56:51.046Z,16.17
2019-02-14T11:59:13.578Z,23.40
2019-02-14T12:01:36.000Z,16.63
2019-02-14T12:03:58.407Z,18.33
2019-02-14T12:06:33.724Z,15.53
2019-02-14T12:09:00.209Z,18.60
2019-02-14T12:11:20.595Z,19.23
2019-02-14T12:13:43.139Z,16.77
2019-02-14T12:16:05.569Z,15.65
2019-02-14T12:18:27.987Z,17.23
2019-02-14T12:20:50.437Z,14.37
2019-02-14T12:23:12.850Z,15.90
2019-02-14T12:25:35.275Z,16.37
2019-02-14T12:27:57.874Z,28.33
2019-02-14T12:30:21.023Z,24.27
2019-02-14T12:32:43.530Z,15.37
2019-02-14T12:35:06.094Z,20.30
2019-02-14T12:37:28.543Z,14.73
2019-02-14T12:39:50.968Z,14.03
2019-02-14T12:42:13.402Z,15.70
2019-02-14T12:44:36.021Z,14.23
2019-02-14T12:46:58.693Z,14.57
2019-02-14T12:49:21.150Z,14.63
2019-02-14T12:51:43.619Z,16.73
2019-02-14T12:54:06.074Z,14.10
2019-02-14T12:56:28.563Z,15.43
2019-02-14T12:59:10.538Z,15.40
2019-02-14T13:01:32.971Z,14.40
2019-02-14T14:01:15.803Z,18.33
2019-02-14T14:03:38.340Z,16.73
2019-02-14T14:06:00.754Z,17.80
2019-02-14T14:08:23.207Z,21.73
2019-02-14T14:10:45.611Z,19.47
2019-02-14T14:13:08.049Z,21.50
2019-02-14T15:04:09.281Z,22.07
2019-02-14T15:06:45.758Z,18.10
2019-02-14T15:09:20.807Z,19.77
2019-02-14T15:11:56.142Z,16.47
2019-02-14T15:14:31.106Z,16.73
2019-02-14T16:01:19.054Z,10.83
2019-02-14T16:03:42.730Z,11.37
2019-02-14T16:06:06.178Z,13.43
2019-02-14T16:08:28.834Z,14.10
2019-02-14T16:10:54.101Z,11.40
2019-02-14T16:13:15.683Z,12.13
2019-02-14T16:21:27.757Z,34.67
2019-02-14T16:23:53.025Z,34.00
2019-02-14T16:26:17.116Z,27.17
2019-02-14T16:28:39.880Z,21.57
2019-02-14T16:31:02.391Z,21.63
2019-02-14T16:33:24.919Z,20.03
2019-02-14T16:35:47.458Z,18.70
2019-02-14T16:38:11.781Z,17.57
2019-02-14T16:40:38.507Z,21.33
2019-02-14T16:42:58.838Z,22.63
2019-02-14T16:45:21.270Z,21.63
2019-02-14T16:47:43.687Z,22.00
2019-02-14T16:50:06.838Z,21.03
2019-02-14T16:52:29.425Z,38.97
2019-02-14T16:54:51.921Z,39.77
2019-02-14T16:57:14.366Z,27.70
2019-02-14T16:59:36.886Z,24.13
2019-02-14T17:01:59.474Z,27.37
2019-02-14T17:04:21.915Z,22.57
2019-02-14T17:06:44.382Z,18.30
2019-02-14T17:09:06.914Z,14.50
2019-02-14T17:11:31.279Z,13.33
2019-02-14T17:13:53.786Z,14.37
2019-02-14T18:02:40.843Z,24.67
2019-02-14T18:05:03.500Z,24.97
2019-02-14T18:07:26.110Z,26.40
2019-02-14T18:09:48.633Z,24.70
2019-02-14T18:12:11.047Z,24.90
2019-02-14T18:14:33.462Z,23.87
2019-02-14T19:00:55.195Z,30.40
2019-02-14T19:03:17.727Z,29.87
2019-02-14T19:05:40.269Z,26.30
2019-02-14T19:08:22.367Z,26.63
2019-02-14T19:10:57.451Z,23.93
2019-02-14T19:13:33.001Z,27.93
2019-02-14T20:00:19.738Z,37.50
2019-02-14T20:03:01.730Z,33.77
2019-02-14T20:05:36.963Z,28.13
2019-02-14T20:08:12.046Z,35.40
2019-02-14T20:10:47.034Z,37.40
2019-02-14T20:13:22.123Z,35.13
2019-02-14T21:01:34.999Z,38.07
2019-02-14T21:03:57.554Z,34.20
2019-02-14T21:06:20.100Z,34.37
2019-02-14T21:08:42.547Z,38.40
2019-02-14T21:11:24.432Z,37.00
2019-02-14T21:13:59.209Z,36.00
